WetterOnline ( https://www.wetteronline.de )

Wetter aktuell Friesack

Aktuelles Wetter: Neuruppin - Alt Ruppin (50m)

6-stündlich | Neueste Meldungen
Ortszeit Temperatur Wetter
Mo, 30.11. 1:00 1.6° C bedeckt
So, 29.11. 19:00 3.3° C bedeckt
So, 29.11. 13:00 4.3° C bewölkt
So, 29.11. 7:00 -0.0° C gefr. Sprühregen
So, 29.11. 1:00 -1.3° C leicht bewölkt
Sa, 28.11. 19:00 3.3° C bedeckt
Sa, 28.11. 13:00 5.0° C bedeckt
Sa, 28.11. 7:00 3.2° C bedeckt
Ortszeit Temperatur Wetter
Mo, 30.11. 5:30 1.0° C bewölkt
Mo, 30.11. 5:20 1.0° C bewölkt
Mo, 30.11. 5:10 1.1° C Sprühregen
Mo, 30.11. 5:00 1.2° C Sprühregen
Mo, 30.11. 4:50 1.2° C Sprühregen
Mo, 30.11. 4:40 1.3° C Sprühregen
Mo, 30.11. 4:30 1.4° C bedeckt
Mo, 30.11. 4:00 1.6° C Sprühregen
Mo, 30.11. 3:30 1.6° C bedeckt
Mo, 30.11. 3:00 1.8° C bedeckt
Mo, 30.11. 2:30 1.7° C bedeckt
Ortszeit Relative Feuchte Sichtweite
Mo, 30.11. 1:00 90% 30 km
So, 29.11. 19:00 81% 45 km
So, 29.11. 13:00 83% 55 km
So, 29.11. 7:00 99% 8 km
So, 29.11. 1:00 99% 4.7 km
Sa, 28.11. 19:00 85% 50 km
Sa, 28.11. 13:00 72% 55 km
Sa, 28.11. 7:00 91% 45 km
Ortszeit Relative Feuchte Sichtweite
Mo, 30.11. 5:30 94% 17 km
Mo, 30.11. 5:20 94% -
Mo, 30.11. 5:10 94% -
Mo, 30.11. 5:00 92% 16 km
Mo, 30.11. 4:50 92% -
Mo, 30.11. 4:40 91% -
Mo, 30.11. 4:30 91% 24 km
Mo, 30.11. 4:00 88% 21 km
Mo, 30.11. 3:30 89% 30 km
Mo, 30.11. 3:00 88% 30 km
Mo, 30.11. 2:30 90% 30 km
Ortszeit Niederschlagsmenge Niederschlagsart
Mo, 30.11. 1:00 0.1 l/m2 in 6 Std. Regen
So, 29.11. 19:00 0.2 l/m2 in 12 Std. -
So, 29.11. 13:00 0.2 l/m2 in 6 Std. Regen
So, 29.11. 7:00 0.1 l/m2 in 12 Std. Regen
So, 29.11. 1:00 0.0 l/m2 in 6 Std. -
Sa, 28.11. 19:00 0.1 l/m2 in 12 Std. Sprühregen
Sa, 28.11. 13:00 0.0 l/m2 in 6 Std. -
Sa, 28.11. 7:00 0.0 l/m2 in 12 Std. -
Ortszeit Niederschlagsmenge Niederschlagsart
Mo, 30.11. 5:30 0.1 l/m2 in 1 Std. gefrierender Regen
Mo, 30.11. 5:20 keine Meldung -
Mo, 30.11. 5:10 keine Meldung -
Mo, 30.11. 5:00 0.1 l/m2 in 1 Std. Regen
Mo, 30.11. 4:50 keine Meldung -
Mo, 30.11. 4:40 keine Meldung -
Mo, 30.11. 4:30 0.1 l/m2 in 1 Std. Schneeregen
Mo, 30.11. 4:00 0.1 l/m2 in 1 Std. Regen
Mo, 30.11. 3:30 0.1 l/m2 in 1 Std. Schneeregen
Mo, 30.11. 3:00 0.0 l/m2 in 1 Std. -
Mo, 30.11. 2:30 0.0 l/m2 in 1 Std. -
Ortszeit Stärke Spitze Richtung
km/h Bft. km/h Grad Sektor
Mo, 30.11. 1:00 7 2 17 280° W
So, 29.11. 19:00 7 2 24 320° NW
So, 29.11. 13:00 9 2 20 360° N
So, 29.11. 7:00 4 1 11 270° W
So, 29.11. 1:00 0 0 14 - -
Sa, 28.11. 19:00 7 2 18 320° NW
Sa, 28.11. 13:00 6 1 17 90° O
Sa, 28.11. 7:00 0 0 11 - -
Ortszeit Stärke Spitze Richtung
km/h Bft. km/h Grad Sektor
Mo, 30.11. 5:30 7 2 14 280° W
Mo, 30.11. 5:20 7 2 - 280° W
Mo, 30.11. 5:10 7 2 - 290° W
Mo, 30.11. 5:00 7 2 14 290° W
Mo, 30.11. 4:50 7 2 - 290° W
Mo, 30.11. 4:40 7 2 - 280° W
Mo, 30.11. 4:30 6 1 13 290° W
Mo, 30.11. 4:00 7 2 13 280° W
Mo, 30.11. 3:30 7 2 11 260° W
Mo, 30.11. 3:00 7 2 15 290° W
Mo, 30.11. 2:30 7 2 14 250° W
Ortszeit Untergrenze Bedeckung Gattung
total tief tief mittel hoch
Mo, 30.11. 1:00 780 m 8/8 8/8 - - -
So, 29.11. 19:00 840 m 8/8 8/8 - - -
So, 29.11. 13:00 1080 m 7/8 7/8 - - -
So, 29.11. 7:00 420 m 6/8 6/8 - - -
So, 29.11. 1:00 30 m 4/8 4/8 - - -
Sa, 28.11. 19:00 1080 m 8/8 8/8 - - -
Sa, 28.11. 13:00 630 m 8/8 8/8 - - -
Sa, 28.11. 7:00 480 m 8/8 8/8 - - -
Ortszeit Bedeckungsgrad in Achtel und Wolkenuntergrenze
Mo, 30.11. 5:30 7(510m) 7(840m) 7(960m)
Mo, 30.11. 5:20 7(510m) 7(840m) 7(960m)
Mo, 30.11. 5:10 7(540m) 7(960m)
Mo, 30.11. 5:00 7(540m) 8(660m) 8(930m)
Mo, 30.11. 4:50 7(540m) 8(660m) 8(930m)
Mo, 30.11. 4:40 7(540m) 7(660m) 8(930m)
Mo, 30.11. 4:30 6(510m) 7(660m) 8(960m)
Mo, 30.11. 4:00 1(510m) 8(900m)
Mo, 30.11. 3:30 8(810m)
Mo, 30.11. 3:00 8(810m)
Mo, 30.11. 2:30 8(840m)
Ortszeit Luftdruck NN (hPa) Tendenz (hPa in 3 Std.)
Mo, 30.11. 1:00 1027 - 0,3
So, 29.11. 19:00 1027 + 0,3
So, 29.11. 13:00 1027 - 0,7
So, 29.11. 7:00 1027 - 0,2
So, 29.11. 1:00 1027 - 0,1
Sa, 28.11. 19:00 1027 + 0,9
Sa, 28.11. 13:00 1026 - 0,2
Sa, 28.11. 7:00 1024 + 0,5
Ortszeit Luftdruck NN (hPa) Tendenz (hPa in 3 Std.)
Mo, 30.11. 5:30 1026 - 0,1
Mo, 30.11. 5:20 1026 keine Meldung
Mo, 30.11. 5:10 1026 keine Meldung
Mo, 30.11. 5:00 1026 - 0,2
Mo, 30.11. 4:50 1026 keine Meldung
Mo, 30.11. 4:40 1026 keine Meldung
Mo, 30.11. 4:30 1026 - 0,4
Mo, 30.11. 4:00 1026 - 0,5
Mo, 30.11. 3:30 1026 - 0,7
Mo, 30.11. 3:00 1026 - 0,6
Mo, 30.11. 2:30 1026 - 0,4
Ortszeit Schneehöhe (cm)
Mo, 30.11. 1:00 0
So, 29.11. 19:00 0
So, 29.11. 13:00 0
So, 29.11. 7:00 0
So, 29.11. 1:00 0
Sa, 28.11. 19:00 0
Sa, 28.11. 13:00 0
Sa, 28.11. 7:00 0
Ortszeit Schneehöhe (cm)
Mo, 30.11. 5:30 0
Mo, 30.11. 5:20 0
Mo, 30.11. 5:10 0
Mo, 30.11. 5:00 0
Mo, 30.11. 4:50 0
Mo, 30.11. 4:40 0
Mo, 30.11. 4:30 0
Mo, 30.11. 4:00 0
Mo, 30.11. 3:30 0
Mo, 30.11. 3:00 0
Mo, 30.11. 2:30 0
Link zu dieser Seite / Seite empfehlen

Das Wetter in ...